Alexandria, Ohio
Current Conditions -  °F | °C
As of 12:54 AM on Wednesday 22 Oct 2014 (Local Time) from KVTA Reporting Station
Overcast Overcast  
Wind Chill: 41°   Ceiling: 1300
Heat Index: 46°   Visibility: 10mi
Dew Point: 40°   Wind: 12mph
Humidity: 79%   Direction: 330°NNW
Pressure: 30.12"   Gusts: NA
Location:  40.09°N, 82.61°W
Report Text: KVTA 220454Z AUTO 33010KT 10SM OVC013 08/04 A3012 RMK AO2 SLP201 T00780044 401110072
Loading
Personal Weather Stations






























Interactive Weather Map
Tropical Storm Tracking
New forecast layout! Learn more

10-Day Weather Forecast

Advertisements
Track Severe Weather on mobile